sensor_id;sensor_type;location;lat;lon;timestamp;temperature;humidity
60293;DHT22;52402;52.670;6.750;2024-03-08T00:02:03;1.20;99.90
60293;DHT22;52402;52.670;6.750;2024-03-08T00:04:29;1.20;99.90
60293;DHT22;52402;52.670;6.750;2024-03-08T00:06:55;1.20;99.90
60293;DHT22;52402;52.670;6.750;2024-03-08T00:09:20;1.20;99.90
60293;DHT22;52402;52.670;6.750;2024-03-08T00:11:47;1.20;99.90
60293;DHT22;52402;52.670;6.750;2024-03-08T00:14:14;1.20;99.90
60293;DHT22;52402;52.670;6.750;2024-03-08T00:16:40;1.20;99.90
60293;DHT22;52402;52.670;6.750;2024-03-08T00:19:09;1.20;99.90
60293;DHT22;52402;52.670;6.750;2024-03-08T00:21:34;1.20;99.90
60293;DHT22;52402;52.670;6.750;2024-03-08T00:24:01;1.20;99.90
60293;DHT22;52402;52.670;6.750;2024-03-08T00:26:26;1.20;99.90
60293;DHT22;52402;52.670;6.750;2024-03-08T00:28:52;1.10;99.90
60293;DHT22;52402;52.670;6.750;2024-03-08T00:31:19;1.10;99.90
60293;DHT22;52402;52.670;6.750;2024-03-08T00:33:45;1.10;99.90
60293;DHT22;52402;52.670;6.750;2024-03-08T00:36:11;1.10;99.90
60293;DHT22;52402;52.670;6.750;2024-03-08T00:38:36;1.00;99.90
60293;DHT22;52402;52.670;6.750;2024-03-08T00:41:02;1.10;99.90
60293;DHT22;52402;52.670;6.750;2024-03-08T00:43:28;1.10;99.90
60293;DHT22;52402;52.670;6.750;2024-03-08T00:45:55;1.10;99.90
60293;DHT22;52402;52.670;6.750;2024-03-08T00:48:21;1.10;99.90
60293;DHT22;52402;52.670;6.750;2024-03-08T00:50:47;1.10;99.90
60293;DHT22;52402;52.670;6.750;2024-03-08T00:53:12;1.00;99.90
60293;DHT22;52402;52.670;6.750;2024-03-08T00:55:38;1.00;99.90
60293;DHT22;52402;52.670;6.750;2024-03-08T00:58:04;1.00;99.90
60293;DHT22;52402;52.670;6.750;2024-03-08T01:00:30;1.00;99.90
60293;DHT22;52402;52.670;6.750;2024-03-08T01:02:56;1.00;99.90
60293;DHT22;52402;52.670;6.750;2024-03-08T01:05:22;1.00;99.90
60293;DHT22;52402;52.670;6.750;2024-03-08T01:07:50;1.00;99.90
60293;DHT22;52402;52.670;6.750;2024-03-08T01:10:15;0.90;99.90
60293;DHT22;52402;52.670;6.750;2024-03-08T01:12:41;0.90;99.90
60293;DHT22;52402;52.670;6.750;2024-03-08T01:15:09;0.90;99.90
60293;DHT22;52402;52.670;6.750;2024-03-08T01:17:35;0.90;99.90
60293;DHT22;52402;52.670;6.750;2024-03-08T01:20:01;0.90;99.90
60293;DHT22;52402;52.670;6.750;2024-03-08T01:22:28;0.90;99.90
60293;DHT22;52402;52.670;6.750;2024-03-08T01:24:55;0.90;99.90
60293;DHT22;52402;52.670;6.750;2024-03-08T01:27:21;0.90;99.90
60293;DHT22;52402;52.670;6.750;2024-03-08T01:29:46;0.90;99.90
60293;DHT22;52402;52.670;6.750;2024-03-08T01:32:12;0.90;99.90
60293;DHT22;52402;52.670;6.750;2024-03-08T01:34:38;0.90;99.90
60293;DHT22;52402;52.670;6.750;2024-03-08T01:37:03;0.90;99.90
60293;DHT22;52402;52.670;6.750;2024-03-08T01:39:29;0.90;99.90
60293;DHT22;52402;52.670;6.750;2024-03-08T01:41:54;0.90;99.90
60293;DHT22;52402;52.670;6.750;2024-03-08T01:44:20;0.90;99.90
60293;DHT22;52402;52.670;6.750;2024-03-08T01:46:47;0.90;99.90
60293;DHT22;52402;52.670;6.750;2024-03-08T01:49:14;0.80;99.90
60293;DHT22;52402;52.670;6.750;2024-03-08T01:51:44;0.80;99.90
60293;DHT22;52402;52.670;6.750;2024-03-08T01:54:11;0.80;99.90
60293;DHT22;52402;52.670;6.750;2024-03-08T01:56:38;0.80;99.90
60293;DHT22;52402;52.670;6.750;2024-03-08T01:59:04;0.80;99.90
60293;DHT22;52402;52.670;6.750;2024-03-08T02:01:33;0.80;99.90
60293;DHT22;52402;52.670;6.750;2024-03-08T02:03:59;0.80;99.90
60293;DHT22;52402;52.670;6.750;2024-03-08T02:06:25;0.80;99.90
60293;DHT22;52402;52.670;6.750;2024-03-08T02:08:50;0.70;99.90
60293;DHT22;52402;52.670;6.750;2024-03-08T02:11:16;0.70;99.90
60293;DHT22;52402;52.670;6.750;2024-03-08T02:13:42;0.70;99.90
60293;DHT22;52402;52.670;6.750;2024-03-08T02:16:08;0.70;99.90
60293;DHT22;52402;52.670;6.750;2024-03-08T02:18:34;0.70;99.90
60293;DHT22;52402;52.670;6.750;2024-03-08T02:21:01;0.70;99.90
60293;DHT22;52402;52.670;6.750;2024-03-08T02:23:30;0.60;99.90
60293;DHT22;52402;52.670;6.750;2024-03-08T02:25:57;0.60;99.90
60293;DHT22;52402;52.670;6.750;2024-03-08T02:28:23;0.60;99.90
60293;DHT22;52402;52.670;6.750;2024-03-08T02:30:50;0.60;99.90
60293;DHT22;52402;52.670;6.750;2024-03-08T02:33:17;0.50;99.90
60293;DHT22;52402;52.670;6.750;2024-03-08T02:35:47;0.50;99.90
60293;DHT22;52402;52.670;6.750;2024-03-08T02:38:18;0.40;99.90
60293;DHT22;52402;52.670;6.750;2024-03-08T02:40:48;0.40;99.90
60293;DHT22;52402;52.670;6.750;2024-03-08T02:43:15;0.40;99.90
60293;DHT22;52402;52.670;6.750;2024-03-08T02:45:41;0.30;99.90
60293;DHT22;52402;52.670;6.750;2024-03-08T02:48:14;0.30;99.90
60293;DHT22;52402;52.670;6.750;2024-03-08T02:53:08;0.30;99.90
60293;DHT22;52402;52.670;6.750;2024-03-08T02:55:35;0.30;99.90
60293;DHT22;52402;52.670;6.750;2024-03-08T02:58:02;0.20;99.90
60293;DHT22;52402;52.670;6.750;2024-03-08T03:00:29;0.20;99.90
60293;DHT22;52402;52.670;6.750;2024-03-08T03:02:56;0.20;99.90
60293;DHT22;52402;52.670;6.750;2024-03-08T03:05:25;0.20;99.90
60293;DHT22;52402;52.670;6.750;2024-03-08T03:07:51;0.20;99.90
60293;DHT22;52402;52.670;6.750;2024-03-08T03:10:17;0.20;99.90
60293;DHT22;52402;52.670;6.750;2024-03-08T03:12:43;0.10;99.90
60293;DHT22;52402;52.670;6.750;2024-03-08T03:15:10;0.10;99.90
60293;DHT22;52402;52.670;6.750;2024-03-08T03:17:37;0.20;99.90
60293;DHT22;52402;52.670;6.750;2024-03-08T03:20:05;0.10;99.90
60293;DHT22;52402;52.670;6.750;2024-03-08T03:22:36;0.10;99.90
60293;DHT22;52402;52.670;6.750;2024-03-08T03:25:03;0.10;99.90
60293;DHT22;52402;52.670;6.750;2024-03-08T03:27:29;0.10;99.90
60293;DHT22;52402;52.670;6.750;2024-03-08T03:29:56;0.10;99.90
60293;DHT22;52402;52.670;6.750;2024-03-08T03:32:23;0.00;99.90
60293;DHT22;52402;52.670;6.750;2024-03-08T03:34:49;0.00;99.90
60293;DHT22;52402;52.670;6.750;2024-03-08T03:37:18;0.00;99.90
60293;DHT22;52402;52.670;6.750;2024-03-08T03:39:45;0.00;99.90
60293;DHT22;52402;52.670;6.750;2024-03-08T03:42:18;0.00;99.90
60293;DHT22;52402;52.670;6.750;2024-03-08T03:44:47;0.00;99.90
60293;DHT22;52402;52.670;6.750;2024-03-08T03:47:14;0.10;99.90
60293;DHT22;52402;52.670;6.750;2024-03-08T03:49:41;0.10;99.90
60293;DHT22;52402;52.670;6.750;2024-03-08T03:52:06;0.00;99.90
60293;DHT22;52402;52.670;6.750;2024-03-08T03:54:32;0.00;99.90
60293;DHT22;52402;52.670;6.750;2024-03-08T03:56:59;0.00;99.90
60293;DHT22;52402;52.670;6.750;2024-03-08T03:59:26;0.00;99.90
60293;DHT22;52402;52.670;6.750;2024-03-08T04:01:53;0.00;99.90
60293;DHT22;52402;52.670;6.750;2024-03-08T04:04:20;0.00;99.90
60293;DHT22;52402;52.670;6.750;2024-03-08T04:06:45;0.00;99.90
60293;DHT22;52402;52.670;6.750;2024-03-08T04:09:11;0.00;99.90
60293;DHT22;52402;52.670;6.750;2024-03-08T04:11:38;0.00;99.90
60293;DHT22;52402;52.670;6.750;2024-03-08T04:14:03;0.00;99.90
60293;DHT22;52402;52.670;6.750;2024-03-08T04:16:30;0.00;99.90
60293;DHT22;52402;52.670;6.750;2024-03-08T04:18:58;0.00;99.90
60293;DHT22;52402;52.670;6.750;2024-03-08T04:21:24;0.00;99.90
60293;DHT22;52402;52.670;6.750;2024-03-08T04:23:49;-0.10;99.90
60293;DHT22;52402;52.670;6.750;2024-03-08T04:26:15;-0.10;99.90
60293;DHT22;52402;52.670;6.750;2024-03-08T04:28:40;-0.10;99.90
60293;DHT22;52402;52.670;6.750;2024-03-08T04:31:06;-0.10;99.90
60293;DHT22;52402;52.670;6.750;2024-03-08T04:33:32;-0.10;99.90
60293;DHT22;52402;52.670;6.750;2024-03-08T04:36:01;-0.10;99.90
60293;DHT22;52402;52.670;6.750;2024-03-08T04:38:26;-0.10;99.90
60293;DHT22;52402;52.670;6.750;2024-03-08T04:40:52;-0.20;99.90
60293;DHT22;52402;52.670;6.750;2024-03-08T04:43:18;-0.20;99.90
60293;DHT22;52402;52.670;6.750;2024-03-08T04:45:44;-0.20;99.90
60293;DHT22;52402;52.670;6.750;2024-03-08T04:48:10;-0.20;99.90
60293;DHT22;52402;52.670;6.750;2024-03-08T04:50:37;-0.30;99.90
60293;DHT22;52402;52.670;6.750;2024-03-08T04:53:03;-0.30;99.90
60293;DHT22;52402;52.670;6.750;2024-03-08T04:55:30;-0.30;99.90
60293;DHT22;52402;52.670;6.750;2024-03-08T04:57:55;-0.30;99.90
60293;DHT22;52402;52.670;6.750;2024-03-08T05:00:21;-0.40;99.90
60293;DHT22;52402;52.670;6.750;2024-03-08T05:02:46;-0.40;99.90
60293;DHT22;52402;52.670;6.750;2024-03-08T05:05:12;-0.40;99.90
60293;DHT22;52402;52.670;6.750;2024-03-08T05:07:38;-0.40;99.90
60293;DHT22;52402;52.670;6.750;2024-03-08T05:10:06;-0.40;99.90
60293;DHT22;52402;52.670;6.750;2024-03-08T05:12:32;-0.40;99.90
60293;DHT22;52402;52.670;6.750;2024-03-08T05:14:58;-0.40;99.90
60293;DHT22;52402;52.670;6.750;2024-03-08T05:17:24;-0.40;99.90
60293;DHT22;52402;52.670;6.750;2024-03-08T05:19:50;-0.40;99.90
60293;DHT22;52402;52.670;6.750;2024-03-08T05:22:16;-0.40;99.90
60293;DHT22;52402;52.670;6.750;2024-03-08T05:24:43;-0.40;99.90
60293;DHT22;52402;52.670;6.750;2024-03-08T05:27:08;-0.40;99.90
60293;DHT22;52402;52.670;6.750;2024-03-08T05:29:34;-0.40;99.90
60293;DHT22;52402;52.670;6.750;2024-03-08T05:31:59;-0.30;99.90
60293;DHT22;52402;52.670;6.750;2024-03-08T05:34:25;-0.30;99.90
60293;DHT22;52402;52.670;6.750;2024-03-08T05:36:54;-0.30;99.90
60293;DHT22;52402;52.670;6.750;2024-03-08T05:39:20;-0.30;99.90
60293;DHT22;52402;52.670;6.750;2024-03-08T05:41:45;-0.30;99.90
60293;DHT22;52402;52.670;6.750;2024-03-08T05:44:12;-0.20;99.90
60293;DHT22;52402;52.670;6.750;2024-03-08T05:46:39;-0.20;99.90
60293;DHT22;52402;52.670;6.750;2024-03-08T05:49:05;-0.30;99.90
60293;DHT22;52402;52.670;6.750;2024-03-08T05:51:32;-0.30;99.90
60293;DHT22;52402;52.670;6.750;2024-03-08T05:54:03;-0.30;99.90
60293;DHT22;52402;52.670;6.750;2024-03-08T05:56:32;-0.30;99.90
60293;DHT22;52402;52.670;6.750;2024-03-08T05:58:58;-0.20;99.90
60293;DHT22;52402;52.670;6.750;2024-03-08T06:01:24;-0.20;99.90
60293;DHT22;52402;52.670;6.750;2024-03-08T06:03:50;-0.30;99.90
60293;DHT22;52402;52.670;6.750;2024-03-08T06:06:16;-0.30;99.90
60293;DHT22;52402;52.670;6.750;2024-03-08T06:08:43;-0.30;99.90
60293;DHT22;52402;52.670;6.750;2024-03-08T06:11:09;-0.30;99.90
60293;DHT22;52402;52.670;6.750;2024-03-08T06:13:35;-0.30;99.90
60293;DHT22;52402;52.670;6.750;2024-03-08T06:16:02;-0.30;99.90
60293;DHT22;52402;52.670;6.750;2024-03-08T06:18:31;-0.30;99.90
60293;DHT22;52402;52.670;6.750;2024-03-08T06:20:56;-0.20;99.90
60293;DHT22;52402;52.670;6.750;2024-03-08T06:23:22;-0.20;99.90
60293;DHT22;52402;52.670;6.750;2024-03-08T06:25:48;-0.20;99.90
60293;DHT22;52402;52.670;6.750;2024-03-08T06:28:14;-0.20;99.90
60293;DHT22;52402;52.670;6.750;2024-03-08T06:30:40;-0.20;99.90
60293;DHT22;52402;52.670;6.750;2024-03-08T06:33:06;-0.20;99.90
60293;DHT22;52402;52.670;6.750;2024-03-08T06:35:32;-0.20;99.90
60293;DHT22;52402;52.670;6.750;2024-03-08T06:38:01;-0.20;99.90
60293;DHT22;52402;52.670;6.750;2024-03-08T06:40:26;-0.20;99.90
60293;DHT22;52402;52.670;6.750;2024-03-08T06:42:52;-0.10;99.90
60293;DHT22;52402;52.670;6.750;2024-03-08T06:45:17;-0.10;99.90
60293;DHT22;52402;52.670;6.750;2024-03-08T06:47:46;-0.10;99.90
60293;DHT22;52402;52.670;6.750;2024-03-08T06:50:12;0.00;99.90
60293;DHT22;52402;52.670;6.750;2024-03-08T06:52:38;0.00;99.90
60293;DHT22;52402;52.670;6.750;2024-03-08T06:55:04;0.00;99.90
60293;DHT22;52402;52.670;6.750;2024-03-08T06:57:31;0.10;99.90
60293;DHT22;52402;52.670;6.750;2024-03-08T06:59:57;0.10;99.90
60293;DHT22;52402;52.670;6.750;2024-03-08T07:02:23;0.10;99.90
60293;DHT22;52402;52.670;6.750;2024-03-08T07:04:51;0.20;99.90
60293;DHT22;52402;52.670;6.750;2024-03-08T07:07:18;0.20;99.90
60293;DHT22;52402;52.670;6.750;2024-03-08T07:09:46;0.30;99.90
60293;DHT22;52402;52.670;6.750;2024-03-08T07:12:11;0.30;99.90
60293;DHT22;52402;52.670;6.750;2024-03-08T07:14:39;0.30;99.90
60293;DHT22;52402;52.670;6.750;2024-03-08T07:17:07;0.40;99.90
60293;DHT22;52402;52.670;6.750;2024-03-08T07:19:34;0.50;99.90
60293;DHT22;52402;52.670;6.750;2024-03-08T07:22:00;0.50;99.90
60293;DHT22;52402;52.670;6.750;2024-03-08T07:24:26;0.60;99.90
60293;DHT22;52402;52.670;6.750;2024-03-08T07:27:10;0.70;99.90
60293;DHT22;52402;52.670;6.750;2024-03-08T07:29:35;0.70;99.90
60293;DHT22;52402;52.670;6.750;2024-03-08T07:32:01;0.80;99.90
60293;DHT22;52402;52.670;6.750;2024-03-08T07:34:45;0.80;99.90
60293;DHT22;52402;52.670;6.750;2024-03-08T07:37:11;0.90;99.90
60293;DHT22;52402;52.670;6.750;2024-03-08T07:39:38;1.00;99.90
60293;DHT22;52402;52.670;6.750;2024-03-08T07:42:04;1.00;99.90
60293;DHT22;52402;52.670;6.750;2024-03-08T07:44:30;1.10;99.90
60293;DHT22;52402;52.670;6.750;2024-03-08T07:46:57;1.20;99.90
60293;DHT22;52402;52.670;6.750;2024-03-08T07:49:22;1.30;99.90
60293;DHT22;52402;52.670;6.750;2024-03-08T07:51:48;1.30;99.90
60293;DHT22;52402;52.670;6.750;2024-03-08T07:54:17;1.50;99.90
60293;DHT22;52402;52.670;6.750;2024-03-08T07:56:59;1.40;99.90
60293;DHT22;52402;52.670;6.750;2024-03-08T07:59:52;1.50;99.90
60293;DHT22;52402;52.670;6.750;2024-03-08T08:02:35;1.70;99.90
60293;DHT22;52402;52.670;6.750;2024-03-08T08:05:01;1.80;99.90
60293;DHT22;52402;52.670;6.750;2024-03-08T08:07:27;1.80;99.90
60293;DHT22;52402;52.670;6.750;2024-03-08T08:09:53;1.90;99.90
60293;DHT22;52402;52.670;6.750;2024-03-08T08:12:19;2.00;99.90
60293;DHT22;52402;52.670;6.750;2024-03-08T08:14:44;2.00;99.90
60293;DHT22;52402;52.670;6.750;2024-03-08T08:17:10;2.10;99.90
60293;DHT22;52402;52.670;6.750;2024-03-08T08:19:37;2.20;99.90
60293;DHT22;52402;52.670;6.750;2024-03-08T08:22:04;2.20;99.90
60293;DHT22;52402;52.670;6.750;2024-03-08T08:24:30;2.30;99.90
60293;DHT22;52402;52.670;6.750;2024-03-08T08:26:55;2.40;99.90
60293;DHT22;52402;52.670;6.750;2024-03-08T08:29:21;2.50;99.90
60293;DHT22;52402;52.670;6.750;2024-03-08T08:31:48;2.60;99.90
60293;DHT22;52402;52.670;6.750;2024-03-08T08:34:20;2.60;99.90
60293;DHT22;52402;52.670;6.750;2024-03-08T08:36:49;2.70;99.90
60293;DHT22;52402;52.670;6.750;2024-03-08T08:39:14;2.80;99.90
60293;DHT22;52402;52.670;6.750;2024-03-08T08:41:42;2.90;99.90
60293;DHT22;52402;52.670;6.750;2024-03-08T08:44:11;3.00;99.90
60293;DHT22;52402;52.670;6.750;2024-03-08T08:46:38;3.00;99.90
60293;DHT22;52402;52.670;6.750;2024-03-08T08:49:04;3.20;99.90
60293;DHT22;52402;52.670;6.750;2024-03-08T08:51:30;3.30;99.90
60293;DHT22;52402;52.670;6.750;2024-03-08T08:53:59;3.30;99.90
60293;DHT22;52402;52.670;6.750;2024-03-08T08:56:24;3.40;99.90
60293;DHT22;52402;52.670;6.750;2024-03-08T08:58:51;3.50;99.90
60293;DHT22;52402;52.670;6.750;2024-03-08T09:01:19;3.50;99.90
60293;DHT22;52402;52.670;6.750;2024-03-08T09:03:44;3.60;99.90
60293;DHT22;52402;52.670;6.750;2024-03-08T09:06:12;3.70;99.90
60293;DHT22;52402;52.670;6.750;2024-03-08T09:08:42;3.80;99.90
60293;DHT22;52402;52.670;6.750;2024-03-08T09:11:07;3.80;99.90
60293;DHT22;52402;52.670;6.750;2024-03-08T09:13:37;3.90;99.90
60293;DHT22;52402;52.670;6.750;2024-03-08T09:16:03;4.00;99.90
60293;DHT22;52402;52.670;6.750;2024-03-08T09:18:31;4.10;99.90
60293;DHT22;52402;52.670;6.750;2024-03-08T09:20:58;4.20;99.90
60293;DHT22;52402;52.670;6.750;2024-03-08T09:23:25;4.20;99.90
60293;DHT22;52402;52.670;6.750;2024-03-08T09:25:58;4.30;99.90
60293;DHT22;52402;52.670;6.750;2024-03-08T09:28:24;4.40;99.90
60293;DHT22;52402;52.670;6.750;2024-03-08T09:30:50;4.50;99.90
60293;DHT22;52402;52.670;6.750;2024-03-08T09:33:16;4.60;99.90
60293;DHT22;52402;52.670;6.750;2024-03-08T09:35:45;4.70;99.90
60293;DHT22;52402;52.670;6.750;2024-03-08T09:38:12;4.70;99.90
60293;DHT22;52402;52.670;6.750;2024-03-08T09:40:41;4.80;99.90
60293;DHT22;52402;52.670;6.750;2024-03-08T09:43:06;4.80;99.90
60293;DHT22;52402;52.670;6.750;2024-03-08T09:45:36;4.90;99.90
60293;DHT22;52402;52.670;6.750;2024-03-08T09:48:10;5.00;99.90
60293;DHT22;52402;52.670;6.750;2024-03-08T09:50:40;5.00;99.90
60293;DHT22;52402;52.670;6.750;2024-03-08T09:53:07;5.10;99.90
60293;DHT22;52402;52.670;6.750;2024-03-08T09:55:37;5.10;99.90
60293;DHT22;52402;52.670;6.750;2024-03-08T09:58:06;5.20;99.90
60293;DHT22;52402;52.670;6.750;2024-03-08T10:00:50;5.20;99.90
60293;DHT22;52402;52.670;6.750;2024-03-08T10:03:16;5.30;99.90
60293;DHT22;52402;52.670;6.750;2024-03-08T10:05:42;5.30;99.90
60293;DHT22;52402;52.670;6.750;2024-03-08T10:08:08;5.40;99.90
60293;DHT22;52402;52.670;6.750;2024-03-08T10:10:34;5.40;99.90
60293;DHT22;52402;52.670;6.750;2024-03-08T10:13:01;5.50;99.90
60293;DHT22;52402;52.670;6.750;2024-03-08T10:15:29;5.50;99.90
60293;DHT22;52402;52.670;6.750;2024-03-08T10:17:58;5.50;99.90
60293;DHT22;52402;52.670;6.750;2024-03-08T10:20:23;5.60;99.90
60293;DHT22;52402;52.670;6.750;2024-03-08T10:22:49;5.70;99.90
60293;DHT22;52402;52.670;6.750;2024-03-08T10:25:15;5.80;99.90
60293;DHT22;52402;52.670;6.750;2024-03-08T10:27:41;5.90;99.90
60293;DHT22;52402;52.670;6.750;2024-03-08T10:30:12;6.00;99.90
60293;DHT22;52402;52.670;6.750;2024-03-08T10:32:39;6.00;99.90
60293;DHT22;52402;52.670;6.750;2024-03-08T10:35:07;6.00;99.90
60293;DHT22;52402;52.670;6.750;2024-03-08T10:37:38;6.00;99.90
60293;DHT22;52402;52.670;6.750;2024-03-08T10:40:10;6.10;99.90
60293;DHT22;52402;52.670;6.750;2024-03-08T10:42:52;6.20;99.90
60293;DHT22;52402;52.670;6.750;2024-03-08T10:50:36;6.50;99.90
60293;DHT22;52402;52.670;6.750;2024-03-08T10:53:03;6.60;99.90
60293;DHT22;52402;52.670;6.750;2024-03-08T10:55:37;6.70;99.90
60293;DHT22;52402;52.670;6.750;2024-03-08T10:58:04;6.90;99.90
60293;DHT22;52402;52.670;6.750;2024-03-08T11:00:31;7.00;99.90
60293;DHT22;52402;52.670;6.750;2024-03-08T11:02:59;6.90;99.90
60293;DHT22;52402;52.670;6.750;2024-03-08T11:05:41;7.00;99.90
60293;DHT22;52402;52.670;6.750;2024-03-08T11:08:19;7.10;99.90
60293;DHT22;52402;52.670;6.750;2024-03-08T11:10:52;7.20;99.90
60293;DHT22;52402;52.670;6.750;2024-03-08T11:13:37;7.30;99.90
60293;DHT22;52402;52.670;6.750;2024-03-08T11:18:59;7.40;99.90
60293;DHT22;52402;52.670;6.750;2024-03-08T11:21:34;7.40;99.90
60293;DHT22;52402;52.670;6.750;2024-03-08T11:24:08;7.50;99.90
60293;DHT22;52402;52.670;6.750;2024-03-08T11:26:37;7.60;99.90
60293;DHT22;52402;52.670;6.750;2024-03-08T11:29:34;7.70;99.90
60293;DHT22;52402;52.670;6.750;2024-03-08T11:34:32;7.80;99.90
60293;DHT22;52402;52.670;6.750;2024-03-08T11:37:04;7.90;99.90
60293;DHT22;52402;52.670;6.750;2024-03-08T11:39:30;8.00;99.90
60293;DHT22;52402;52.670;6.750;2024-03-08T11:41:56;8.10;99.90
60293;DHT22;52402;52.670;6.750;2024-03-08T11:44:26;8.20;99.90
60293;DHT22;52402;52.670;6.750;2024-03-08T11:46:53;8.30;99.90
60293;DHT22;52402;52.670;6.750;2024-03-08T11:49:19;8.40;99.90
60293;DHT22;52402;52.670;6.750;2024-03-08T11:51:45;8.50;99.90
60293;DHT22;52402;52.670;6.750;2024-03-08T11:54:12;8.60;99.90
60293;DHT22;52402;52.670;6.750;2024-03-08T11:56:45;8.60;99.90
60293;DHT22;52402;52.670;6.750;2024-03-08T11:59:15;8.70;99.90
60293;DHT22;52402;52.670;6.750;2024-03-08T12:02:01;8.80;99.90
60293;DHT22;52402;52.670;6.750;2024-03-08T12:04:30;9.00;99.90
60293;DHT22;52402;52.670;6.750;2024-03-08T12:07:00;9.00;99.90
60293;DHT22;52402;52.670;6.750;2024-03-08T12:09:35;9.10;99.90
60293;DHT22;52402;52.670;6.750;2024-03-08T12:12:02;9.00;99.90
60293;DHT22;52402;52.670;6.750;2024-03-08T12:14:30;9.10;99.90
60293;DHT22;52402;52.670;6.750;2024-03-08T12:16:57;9.20;99.90
60293;DHT22;52402;52.670;6.750;2024-03-08T12:19:27;9.20;99.90
60293;DHT22;52402;52.670;6.750;2024-03-08T12:21:54;9.30;99.90
60293;DHT22;52402;52.670;6.750;2024-03-08T12:24:20;9.30;99.90
60293;DHT22;52402;52.670;6.750;2024-03-08T12:26:47;9.30;99.90
60293;DHT22;52402;52.670;6.750;2024-03-08T12:29:21;9.40;99.90
60293;DHT22;52402;52.670;6.750;2024-03-08T12:31:54;9.50;99.90
60293;DHT22;52402;52.670;6.750;2024-03-08T12:34:23;9.60;99.90
60293;DHT22;52402;52.670;6.750;2024-03-08T12:36:49;9.60;99.90
60293;DHT22;52402;52.670;6.750;2024-03-08T12:39:22;9.70;99.90
60293;DHT22;52402;52.670;6.750;2024-03-08T12:41:48;9.90;99.90
60293;DHT22;52402;52.670;6.750;2024-03-08T12:44:20;9.90;99.90
60293;DHT22;52402;52.670;6.750;2024-03-08T12:46:51;9.90;99.90
60293;DHT22;52402;52.670;6.750;2024-03-08T12:49:17;9.80;99.90
60293;DHT22;52402;52.670;6.750;2024-03-08T12:51:46;10.00;99.90
60293;DHT22;52402;52.670;6.750;2024-03-08T12:54:12;10.10;99.90
60293;DHT22;52402;52.670;6.750;2024-03-08T12:56:38;10.20;99.90
60293;DHT22;52402;52.670;6.750;2024-03-08T12:59:06;10.20;99.90
60293;DHT22;52402;52.670;6.750;2024-03-08T13:01:33;10.30;99.90
60293;DHT22;52402;52.670;6.750;2024-03-08T13:04:01;10.30;99.90
60293;DHT22;52402;52.670;6.750;2024-03-08T13:06:29;10.50;99.90
60293;DHT22;52402;52.670;6.750;2024-03-08T13:08:57;10.50;99.90
60293;DHT22;52402;52.670;6.750;2024-03-08T13:11:24;10.60;99.90
60293;DHT22;52402;52.670;6.750;2024-03-08T13:13:56;10.60;99.90
60293;DHT22;52402;52.670;6.750;2024-03-08T13:16:23;10.60;99.90
60293;DHT22;52402;52.670;6.750;2024-03-08T13:18:48;10.70;99.90
60293;DHT22;52402;52.670;6.750;2024-03-08T13:21:14;10.70;99.90
60293;DHT22;52402;52.670;6.750;2024-03-08T13:23:41;10.60;99.90
60293;DHT22;52402;52.670;6.750;2024-03-08T13:26:12;10.70;99.90
60293;DHT22;52402;52.670;6.750;2024-03-08T13:28:42;10.70;99.90
60293;DHT22;52402;52.670;6.750;2024-03-08T13:31:07;10.70;99.90
60293;DHT22;52402;52.670;6.750;2024-03-08T13:33:36;10.70;99.90
60293;DHT22;52402;52.670;6.750;2024-03-08T13:36:08;10.60;99.90
60293;DHT22;52402;52.670;6.750;2024-03-08T13:38:43;10.50;99.90
60293;DHT22;52402;52.670;6.750;2024-03-08T13:41:10;10.40;99.90
60293;DHT22;52402;52.670;6.750;2024-03-08T13:43:37;10.40;99.90
60293;DHT22;52402;52.670;6.750;2024-03-08T13:46:04;10.30;99.90
60293;DHT22;52402;52.670;6.750;2024-03-08T13:48:33;10.30;99.90
60293;DHT22;52402;52.670;6.750;2024-03-08T13:50:59;10.20;99.90
60293;DHT22;52402;52.670;6.750;2024-03-08T13:53:28;10.30;99.90
60293;DHT22;52402;52.670;6.750;2024-03-08T13:55:53;10.20;99.90
60293;DHT22;52402;52.670;6.750;2024-03-08T13:58:20;10.30;99.90
60293;DHT22;52402;52.670;6.750;2024-03-08T14:00:49;10.30;99.90
60293;DHT22;52402;52.670;6.750;2024-03-08T14:03:25;10.20;99.90
60293;DHT22;52402;52.670;6.750;2024-03-08T14:05:51;10.10;99.90
60293;DHT22;52402;52.670;6.750;2024-03-08T14:08:18;10.10;99.90
60293;DHT22;52402;52.670;6.750;2024-03-08T14:10:44;10.10;99.90
60293;DHT22;52402;52.670;6.750;2024-03-08T14:13:12;10.10;99.90
60293;DHT22;52402;52.670;6.750;2024-03-08T14:15:40;10.10;99.90
60293;DHT22;52402;52.670;6.750;2024-03-08T14:18:08;10.10;99.90
60293;DHT22;52402;52.670;6.750;2024-03-08T14:20:33;10.10;99.90
60293;DHT22;52402;52.670;6.750;2024-03-08T14:22:59;10.10;99.90
60293;DHT22;52402;52.670;6.750;2024-03-08T14:25:30;10.10;99.90
60293;DHT22;52402;52.670;6.750;2024-03-08T14:28:05;10.10;99.90
60293;DHT22;52402;52.670;6.750;2024-03-08T14:30:33;10.20;99.90
60293;DHT22;52402;52.670;6.750;2024-03-08T14:33:05;10.30;99.90
60293;DHT22;52402;52.670;6.750;2024-03-08T14:35:40;10.30;99.90
60293;DHT22;52402;52.670;6.750;2024-03-08T14:38:08;10.20;99.90
60293;DHT22;52402;52.670;6.750;2024-03-08T14:40:37;10.10;99.90
60293;DHT22;52402;52.670;6.750;2024-03-08T14:43:09;10.10;99.90
60293;DHT22;52402;52.670;6.750;2024-03-08T14:45:38;10.10;99.90
60293;DHT22;52402;52.670;6.750;2024-03-08T14:48:04;10.10;99.90
60293;DHT22;52402;52.670;6.750;2024-03-08T14:50:30;10.20;99.90
60293;DHT22;52402;52.670;6.750;2024-03-08T14:52:58;10.10;99.90
60293;DHT22;52402;52.670;6.750;2024-03-08T14:55:25;10.10;99.90
60293;DHT22;52402;52.670;6.750;2024-03-08T14:57:51;10.10;99.90
60293;DHT22;52402;52.670;6.750;2024-03-08T15:00:21;10.00;99.90
60293;DHT22;52402;52.670;6.750;2024-03-08T15:03:05;10.00;99.90
60293;DHT22;52402;52.670;6.750;2024-03-08T15:05:40;9.90;99.90
60293;DHT22;52402;52.670;6.750;2024-03-08T15:08:20;9.80;99.90
60293;DHT22;52402;52.670;6.750;2024-03-08T15:11:05;9.70;99.90
60293;DHT22;52402;52.670;6.750;2024-03-08T15:13:57;9.50;99.90
60293;DHT22;52402;52.670;6.750;2024-03-08T15:16:43;9.40;99.90
60293;DHT22;52402;52.670;6.750;2024-03-08T15:19:11;9.50;99.90
60293;DHT22;52402;52.670;6.750;2024-03-08T15:21:38;9.40;99.90
60293;DHT22;52402;52.670;6.750;2024-03-08T15:24:04;9.40;99.90
60293;DHT22;52402;52.670;6.750;2024-03-08T15:26:30;9.30;99.90
60293;DHT22;52402;52.670;6.750;2024-03-08T15:28:57;9.20;99.90
60293;DHT22;52402;52.670;6.750;2024-03-08T15:31:23;9.10;99.90
60293;DHT22;52402;52.670;6.750;2024-03-08T15:33:52;9.00;99.90
60293;DHT22;52402;52.670;6.750;2024-03-08T15:36:29;8.90;99.90
60293;DHT22;52402;52.670;6.750;2024-03-08T15:39:01;8.90;99.90
60293;DHT22;52402;52.670;6.750;2024-03-08T15:41:27;8.90;99.90
60293;DHT22;52402;52.670;6.750;2024-03-08T15:43:55;8.80;99.90
60293;DHT22;52402;52.670;6.750;2024-03-08T15:46:21;8.80;99.90
60293;DHT22;52402;52.670;6.750;2024-03-08T15:48:48;8.70;99.90
60293;DHT22;52402;52.670;6.750;2024-03-08T15:51:14;8.70;99.90
60293;DHT22;52402;52.670;6.750;2024-03-08T15:53:43;8.60;99.90
60293;DHT22;52402;52.670;6.750;2024-03-08T15:56:14;8.60;99.90
60293;DHT22;52402;52.670;6.750;2024-03-08T15:58:41;8.60;99.90
60293;DHT22;52402;52.670;6.750;2024-03-08T16:01:08;8.50;99.90